This is the latest recevied weather packets stored in our database for station/object KG5CK-1. If no packets are shown the sender has not sent any weather packets the latest 1 day(s).
| Time | Temp. | Humidity | Pressure | Rain* | Wind** | Luminosity | Snow |
|---|---|---|---|---|---|---|---|
| 1778095383 | 13.89° C | 85% | 1010.5 hPa | 0 mm | 0.45 m/s, 46° | - | - |
| 1778095264 | 13.89° C | 85% | 1010.5 hPa | 0 mm | 0.45 m/s, 46° | - | - |
| 1778095023 | 13.89° C | 86% | 1010.6 hPa | 0 mm | 0.45 m/s, 40° | - | - |
| 1778094963 | 13.89° C | 86% | 1010.6 hPa | 0 mm | 0.45 m/s, 40° | - | - |
| 1778094783 | 13.89° C | 85% | 1010.9 hPa | 0 mm | 1.34 m/s, 35° | - | - |
| 1778094723 | 13.89° C | 85% | 1010.9 hPa | 0 mm | 1.34 m/s, 35° | - | - |
| 1778094663 | 13.89° C | 85% | 1010.9 hPa | 0 mm | 1.34 m/s, 35° | - | - |
| 1778094603 | 13.89° C | 85% | 1010.9 hPa | 0 mm | 0.89 m/s, 41° | - | - |
| 1778094423 | 13.89° C | 85% | 1010.9 hPa | 0 mm | 0.89 m/s, 41° | - | - |
| 1778094363 | 13.89° C | 85% | 1010.9 hPa | 0 mm | 0.89 m/s, 41° | - | - |
| 1778094303 | 13.89° C | 85% | 1011 hPa | 0 mm | 0 m/s | - | - |
| 1778094243 | 13.89° C | 85% | 1011 hPa | 0 mm | 0 m/s | - | - |
| 1778094183 | 13.89° C | 85% | 1011 hPa | 0 mm | 0 m/s | - | - |
| 1778094123 | 13.89° C | 85% | 1011 hPa | 0 mm | 0 m/s | - | - |
| 1778094063 | 13.89° C | 85% | 1011 hPa | 0 mm | 0 m/s | - | - |
| 1778093703 | 14.44° C | 84% | 1010.7 hPa | 0 mm | 0 m/s | - | - |
| 1778093643 | 14.44° C | 84% | 1010.7 hPa | 0 mm | 0 m/s | - | - |
| 1778093583 | 14.44° C | 84% | 1010.7 hPa | 0 mm | 0 m/s | - | - |
| 1778093463 | 14.44° C | 84% | 1010.7 hPa | 0 mm | 0 m/s | - | - |
| 1778093223 | 14.44° C | 85% | 1010.5 hPa | 0 mm | 0 m/s | - | - |
| 1778093163 | 14.44° C | 85% | 1010.5 hPa | 0 mm | 0 m/s | - | - |
| 1778092803 | 14.44° C | 84% | 1009.7 hPa | 0 mm | 0.45 m/s, 54° | - | - |
| 1778092683 | 14.44° C | 84% | 1009.7 hPa | 0 mm | 0.45 m/s, 54° | - | - |
| 1778092503 | 14.44° C | 85% | 1009.2 hPa | 0 mm | 0.45 m/s, 55° | - | - |
| 1778091723 | 13.89° C | 86% | 1009.4 hPa | 0 mm | 0.89 m/s, 38° | - | - |
* Rain latest hour (hover to see other rain measurements)
** Current wind speed in m/s (hover to see current wind gust speed)